sensor_id;sensor_type;location;lat;lon;timestamp;P1;durP1;ratioP1;P2;durP2;ratioP2
17570;SDS011;8903;52.220;20.978;2023-03-23T00:01:16;40.35;;;28.50;;
17570;SDS011;8903;52.220;20.978;2023-03-23T00:03:45;43.17;;;28.90;;
17570;SDS011;8903;52.220;20.978;2023-03-23T00:11:11;41.93;;;29.20;;
17570;SDS011;8903;52.220;20.978;2023-03-23T00:13:40;38.47;;;27.43;;
17570;SDS011;8903;52.220;20.978;2023-03-23T00:16:09;37.80;;;27.10;;
17570;SDS011;8903;52.220;20.978;2023-03-23T00:18:42;40.25;;;28.50;;
17570;SDS011;8903;52.220;20.978;2023-03-23T00:21:10;38.20;;;26.43;;
17570;SDS011;8903;52.220;20.978;2023-03-23T00:23:37;40.20;;;28.15;;
17570;SDS011;8903;52.220;20.978;2023-03-23T00:26:05;39.30;;;27.75;;
17570;SDS011;8903;52.220;20.978;2023-03-23T00:28:33;40.50;;;26.60;;
17570;SDS011;8903;52.220;20.978;2023-03-23T00:31:01;37.90;;;29.00;;
17570;SDS011;8903;52.220;20.978;2023-03-23T00:33:35;39.60;;;28.50;;
17570;SDS011;8903;52.220;20.978;2023-03-23T00:38:34;36.20;;;26.65;;
17570;SDS011;8903;52.220;20.978;2023-03-23T00:41:02;39.70;;;28.80;;
17570;SDS011;8903;52.220;20.978;2023-03-23T00:43:29;40.70;;;28.40;;
17570;SDS011;8903;52.220;20.978;2023-03-23T00:45:57;44.57;;;26.97;;
17570;SDS011;8903;52.220;20.978;2023-03-23T00:48:26;39.15;;;28.75;;
17570;SDS011;8903;52.220;20.978;2023-03-23T00:50:59;44.30;;;29.13;;
17570;SDS011;8903;52.220;20.978;2023-03-23T00:53:26;42.20;;;29.20;;
17570;SDS011;8903;52.220;20.978;2023-03-23T00:55:53;45.70;;;29.10;;
17570;SDS011;8903;52.220;20.978;2023-03-23T00:58:20;45.37;;;29.80;;
17570;SDS011;8903;52.220;20.978;2023-03-23T01:00:47;43.90;;;27.50;;
17570;SDS011;8903;52.220;20.978;2023-03-23T01:03:14;41.13;;;28.83;;
17570;SDS011;8903;52.220;20.978;2023-03-23T01:05:43;42.73;;;28.70;;
17570;SDS011;8903;52.220;20.978;2023-03-23T01:08:14;40.30;;;26.80;;
17570;SDS011;8903;52.220;20.978;2023-03-23T01:10:41;39.13;;;26.07;;
17570;SDS011;8903;52.220;20.978;2023-03-23T01:13:10;41.80;;;28.57;;
17570;SDS011;8903;52.220;20.978;2023-03-23T01:15:37;42.83;;;28.50;;
17570;SDS011;8903;52.220;20.978;2023-03-23T01:18:04;44.00;;;28.73;;
17570;SDS011;8903;52.220;20.978;2023-03-23T01:20:33;44.70;;;29.70;;
17570;SDS011;8903;52.220;20.978;2023-03-23T01:23:01;47.03;;;27.63;;
17570;SDS011;8903;52.220;20.978;2023-03-23T01:25:31;43.10;;;27.43;;
17570;SDS011;8903;52.220;20.978;2023-03-23T01:28:01;39.13;;;26.57;;
17570;SDS011;8903;52.220;20.978;2023-03-23T01:30:28;41.60;;;26.55;;
17570;SDS011;8903;52.220;20.978;2023-03-23T01:32:56;36.20;;;26.20;;
17570;SDS011;8903;52.220;20.978;2023-03-23T01:35:23;46.67;;;27.03;;
17570;SDS011;8903;52.220;20.978;2023-03-23T01:37:51;36.60;;;24.50;;
17570;SDS011;8903;52.220;20.978;2023-03-23T01:40:18;37.90;;;26.60;;
17570;SDS011;8903;52.220;20.978;2023-03-23T01:42:47;37.40;;;26.57;;
17570;SDS011;8903;52.220;20.978;2023-03-23T01:45:23;38.13;;;25.37;;
17570;SDS011;8903;52.220;20.978;2023-03-23T01:48:01;38.20;;;26.70;;
17570;SDS011;8903;52.220;20.978;2023-03-23T01:53:01;36.83;;;26.40;;
17570;SDS011;8903;52.220;20.978;2023-03-23T02:03:02;35.70;;;23.70;;
17570;SDS011;8903;52.220;20.978;2023-03-23T02:05:34;35.50;;;25.75;;
17570;SDS011;8903;52.220;20.978;2023-03-23T02:10:41;38.70;;;25.90;;
17570;SDS011;8903;52.220;20.978;2023-03-23T02:13:10;33.47;;;23.33;;
17570;SDS011;8903;52.220;20.978;2023-03-23T02:15:41;38.57;;;27.00;;
17570;SDS011;8903;52.220;20.978;2023-03-23T02:18:17;35.60;;;24.47;;
17570;SDS011;8903;52.220;20.978;2023-03-23T02:24:00;40.13;;;26.80;;
17570;SDS011;8903;52.220;20.978;2023-03-23T02:26:47;39.77;;;24.80;;
17570;SDS011;8903;52.220;20.978;2023-03-23T02:29:27;35.33;;;25.13;;
17570;SDS011;8903;52.220;20.978;2023-03-23T02:32:29;38.57;;;26.50;;
17570;SDS011;8903;52.220;20.978;2023-03-23T02:35:10;37.00;;;24.30;;
17570;SDS011;8903;52.220;20.978;2023-03-23T02:37:44;34.40;;;25.60;;
17570;SDS011;8903;52.220;20.978;2023-03-23T02:40:15;30.40;;;23.43;;
17570;SDS011;8903;52.220;20.978;2023-03-23T02:45:15;34.70;;;23.90;;
17570;SDS011;8903;52.220;20.978;2023-03-23T02:47:45;30.23;;;21.23;;
17570;SDS011;8903;52.220;20.978;2023-03-23T02:50:15;36.67;;;23.07;;
17570;SDS011;8903;52.220;20.978;2023-03-23T02:52:45;32.65;;;22.45;;
17570;SDS011;8903;52.220;20.978;2023-03-23T02:55:14;30.20;;;22.70;;
17570;SDS011;8903;52.220;20.978;2023-03-23T02:57:42;31.20;;;22.20;;
17570;SDS011;8903;52.220;20.978;2023-03-23T03:00:14;31.23;;;21.03;;
17570;SDS011;8903;52.220;20.978;2023-03-23T03:02:43;32.40;;;22.23;;
17570;SDS011;8903;52.220;20.978;2023-03-23T03:05:14;26.80;;;20.47;;
17570;SDS011;8903;52.220;20.978;2023-03-23T03:07:55;29.20;;;21.33;;
17570;SDS011;8903;52.220;20.978;2023-03-23T03:10:31;29.10;;;22.20;;
17570;SDS011;8903;52.220;20.978;2023-03-23T03:13:05;32.85;;;21.10;;
17570;SDS011;8903;52.220;20.978;2023-03-23T03:15:40;29.90;;;21.20;;
17570;SDS011;8903;52.220;20.978;2023-03-23T03:18:13;28.85;;;20.95;;
17570;SDS011;8903;52.220;20.978;2023-03-23T03:23:21;29.23;;;20.47;;
17570;SDS011;8903;52.220;20.978;2023-03-23T03:25:51;26.20;;;19.40;;
17570;SDS011;8903;52.220;20.978;2023-03-23T03:30:59;31.10;;;21.10;;
17570;SDS011;8903;52.220;20.978;2023-03-23T03:43:22;28.85;;;20.40;;
17570;SDS011;8903;52.220;20.978;2023-03-23T03:48:16;30.30;;;21.43;;
17570;SDS011;8903;52.220;20.978;2023-03-23T03:55:41;27.80;;;20.30;;
17570;SDS011;8903;52.220;20.978;2023-03-23T03:58:14;30.00;;;20.50;;
17570;SDS011;8903;52.220;20.978;2023-03-23T04:01:05;30.00;;;21.65;;
17570;SDS011;8903;52.220;20.978;2023-03-23T04:08:39;28.70;;;20.70;;
17570;SDS011;8903;52.220;20.978;2023-03-23T04:13:34;32.80;;;20.27;;
17570;SDS011;8903;52.220;20.978;2023-03-23T04:26:03;30.00;;;18.60;;
17570;SDS011;8903;52.220;20.978;2023-03-23T04:36:42;32.10;;;20.20;;
17570;SDS011;8903;52.220;20.978;2023-03-23T04:39:14;27.50;;;19.70;;
17570;SDS011;8903;52.220;20.978;2023-03-23T04:41:44;29.00;;;19.65;;
17570;SDS011;8903;52.220;20.978;2023-03-23T04:54:40;26.90;;;20.30;;
17570;SDS011;8903;52.220;20.978;2023-03-23T04:57:09;27.30;;;19.95;;
17570;SDS011;8903;52.220;20.978;2023-03-23T04:59:40;30.50;;;20.00;;
17570;SDS011;8903;52.220;20.978;2023-03-23T05:02:18;30.57;;;21.60;;
17570;SDS011;8903;52.220;20.978;2023-03-23T05:07:20;28.80;;;18.70;;
17570;SDS011;8903;52.220;20.978;2023-03-23T05:09:48;29.70;;;20.40;;
17570;SDS011;8903;52.220;20.978;2023-03-23T05:12:21;27.70;;;19.30;;
17570;SDS011;8903;52.220;20.978;2023-03-23T05:15:01;27.85;;;19.20;;
17570;SDS011;8903;52.220;20.978;2023-03-23T05:22:41;31.60;;;19.40;;
17570;SDS011;8903;52.220;20.978;2023-03-23T05:27:43;24.60;;;18.50;;
17570;SDS011;8903;52.220;20.978;2023-03-23T06:12:25;23.10;;;16.75;;
17570;SDS011;8903;52.220;20.978;2023-03-23T06:15:12;20.67;;;16.27;;
17570;SDS011;8903;52.220;20.978;2023-03-23T06:18:04;23.10;;;16.40;;
17570;SDS011;8903;52.220;20.978;2023-03-23T06:20:48;23.00;;;16.60;;
17570;SDS011;8903;52.220;20.978;2023-03-23T06:23:29;30.80;;;17.60;;
17570;SDS011;8903;52.220;20.978;2023-03-23T06:25:57;22.80;;;17.13;;
17570;SDS011;8903;52.220;20.978;2023-03-23T06:28:27;20.97;;;16.17;;
17570;SDS011;8903;52.220;20.978;2023-03-23T06:30:58;23.33;;;16.80;;
17570;SDS011;8903;52.220;20.978;2023-03-23T06:33:27;19.63;;;15.77;;
17570;SDS011;8903;52.220;20.978;2023-03-23T06:36:21;22.90;;;15.50;;
17570;SDS011;8903;52.220;20.978;2023-03-23T06:39:00;21.63;;;16.93;;
17570;SDS011;8903;52.220;20.978;2023-03-23T06:41:42;23.05;;;15.70;;
17570;SDS011;8903;52.220;20.978;2023-03-23T06:49:27;28.40;;;17.30;;
17570;SDS011;8903;52.220;20.978;2023-03-23T06:52:10;22.30;;;15.20;;
17570;SDS011;8903;52.220;20.978;2023-03-23T06:54:37;29.75;;;16.20;;
17570;SDS011;8903;52.220;20.978;2023-03-23T06:57:05;26.05;;;18.10;;
17570;SDS011;8903;52.220;20.978;2023-03-23T06:59:33;20.90;;;15.50;;
17570;SDS011;8903;52.220;20.978;2023-03-23T07:02:01;23.40;;;15.95;;
17570;SDS011;8903;52.220;20.978;2023-03-23T07:04:29;24.13;;;16.67;;
17570;SDS011;8903;52.220;20.978;2023-03-23T07:07:05;22.47;;;15.27;;
17570;SDS011;8903;52.220;20.978;2023-03-23T07:09:44;24.40;;;14.60;;
17570;SDS011;8903;52.220;20.978;2023-03-23T07:12:13;32.00;;;15.43;;
17570;SDS011;8903;52.220;20.978;2023-03-23T07:14:45;23.70;;;14.20;;
17570;SDS011;8903;52.220;20.978;2023-03-23T07:22:20;21.50;;;14.90;;
17570;SDS011;8903;52.220;20.978;2023-03-23T07:27:28;28.35;;;19.00;;
17570;SDS011;8903;52.220;20.978;2023-03-23T07:29:59;16.17;;;13.30;;
17570;SDS011;8903;52.220;20.978;2023-03-23T07:32:26;22.00;;;16.05;;
17570;SDS011;8903;52.220;20.978;2023-03-23T07:34:55;25.40;;;15.60;;
17570;SDS011;8903;52.220;20.978;2023-03-23T07:37:42;17.60;;;13.07;;
17570;SDS011;8903;52.220;20.978;2023-03-23T07:40:11;26.13;;;15.97;;
17570;SDS011;8903;52.220;20.978;2023-03-23T07:42:43;18.30;;;13.87;;
17570;SDS011;8903;52.220;20.978;2023-03-23T07:45:19;22.70;;;16.20;;
17570;SDS011;8903;52.220;20.978;2023-03-23T07:47:46;19.63;;;13.23;;
17570;SDS011;8903;52.220;20.978;2023-03-23T07:52:43;14.23;;;11.90;;
17570;SDS011;8903;52.220;20.978;2023-03-23T07:55:11;15.60;;;12.70;;
17570;SDS011;8903;52.220;20.978;2023-03-23T08:14:07;12.75;;;10.35;;
17570;SDS011;8903;52.220;20.978;2023-03-23T08:16:52;14.85;;;10.05;;
17570;SDS011;8903;52.220;20.978;2023-03-23T08:19:52;18.50;;;10.40;;
17570;SDS011;8903;52.220;20.978;2023-03-23T08:22:42;23.90;;;10.95;;
17570;SDS011;8903;52.220;20.978;2023-03-23T08:33:53;12.05;;;8.85;;
17570;SDS011;8903;52.220;20.978;2023-03-23T08:36:36;14.53;;;8.60;;
17570;SDS011;8903;52.220;20.978;2023-03-23T08:39:31;13.00;;;8.60;;
17570;SDS011;8903;52.220;20.978;2023-03-23T09:44:34;14.73;;;6.70;;
17570;SDS011;8903;52.220;20.978;2023-03-23T09:47:10;10.57;;;6.50;;
17570;SDS011;8903;52.220;20.978;2023-03-23T09:54:38;12.20;;;5.60;;
17570;SDS011;8903;52.220;20.978;2023-03-23T09:59:39;11.15;;;5.55;;
17570;SDS011;8903;52.220;20.978;2023-03-23T10:02:14;10.50;;;6.50;;
17570;SDS011;8903;52.220;20.978;2023-03-23T10:07:12;8.30;;;5.20;;
17570;SDS011;8903;52.220;20.978;2023-03-23T10:17:24;13.90;;;6.40;;
17570;SDS011;8903;52.220;20.978;2023-03-23T10:22:36;5.70;;;4.30;;
17570;SDS011;8903;52.220;20.978;2023-03-23T10:27:42;9.60;;;4.45;;
17570;SDS011;8903;52.220;20.978;2023-03-23T10:47:42;8.30;;;5.30;;
17570;SDS011;8903;52.220;20.978;2023-03-23T10:52:43;6.70;;;3.80;;
17570;SDS011;8903;52.220;20.978;2023-03-23T10:55:11;4.70;;;3.90;;
17570;SDS011;8903;52.220;20.978;2023-03-23T11:05:18;5.75;;;4.45;;
17570;SDS011;8903;52.220;20.978;2023-03-23T11:07:48;5.80;;;4.60;;
17570;SDS011;8903;52.220;20.978;2023-03-23T11:12:47;6.90;;;4.80;;
17570;SDS011;8903;52.220;20.978;2023-03-23T11:15:20;10.90;;;5.40;;
17570;SDS011;8903;52.220;20.978;2023-03-23T11:18:01;5.20;;;4.65;;
17570;SDS011;8903;52.220;20.978;2023-03-23T11:25:33;5.87;;;2.90;;
17570;SDS011;8903;52.220;20.978;2023-03-23T11:28:19;3.60;;;2.00;;
17570;SDS011;8903;52.220;20.978;2023-03-23T11:45:47;6.53;;;3.10;;
17570;SDS011;8903;52.220;20.978;2023-03-23T11:48:18;6.27;;;3.00;;
17570;SDS011;8903;52.220;20.978;2023-03-23T11:50:54;8.60;;;2.90;;
17570;SDS011;8903;52.220;20.978;2023-03-23T11:53:27;4.30;;;2.20;;
17570;SDS011;8903;52.220;20.978;2023-03-23T11:56:06;5.37;;;2.67;;
17570;SDS011;8903;52.220;20.978;2023-03-23T11:58:37;3.87;;;1.80;;
17570;SDS011;8903;52.220;20.978;2023-03-23T12:01:06;15.63;;;8.87;;
17570;SDS011;8903;52.220;20.978;2023-03-23T12:03:47;61.13;;;33.00;;
17570;SDS011;8903;52.220;20.978;2023-03-23T12:06:26;14.20;;;4.37;;
17570;SDS011;8903;52.220;20.978;2023-03-23T12:09:04;3.70;;;1.87;;
17570;SDS011;8903;52.220;20.978;2023-03-23T12:11:45;2.83;;;2.37;;
17570;SDS011;8903;52.220;20.978;2023-03-23T12:14:21;2.87;;;2.30;;
17570;SDS011;8903;52.220;20.978;2023-03-23T12:16:58;2.37;;;1.60;;
17570;SDS011;8903;52.220;20.978;2023-03-23T12:19:35;2.50;;;1.97;;
17570;SDS011;8903;52.220;20.978;2023-03-23T12:22:12;2.33;;;1.80;;
17570;SDS011;8903;52.220;20.978;2023-03-23T12:24:56;4.00;;;2.80;;
17570;SDS011;8903;52.220;20.978;2023-03-23T12:27:33;4.80;;;2.60;;
17570;SDS011;8903;52.220;20.978;2023-03-23T12:30:11;5.80;;;2.73;;
17570;SDS011;8903;52.220;20.978;2023-03-23T12:33:03;2.97;;;2.40;;
17570;SDS011;8903;52.220;20.978;2023-03-23T12:35:44;2.70;;;2.20;;
17570;SDS011;8903;52.220;20.978;2023-03-23T12:38:22;4.10;;;2.63;;
17570;SDS011;8903;52.220;20.978;2023-03-23T12:41:07;4.73;;;3.00;;
17570;SDS011;8903;52.220;20.978;2023-03-23T12:43:44;5.07;;;2.53;;
17570;SDS011;8903;52.220;20.978;2023-03-23T12:46:21;6.00;;;2.87;;
17570;SDS011;8903;52.220;20.978;2023-03-23T12:49:04;10.30;;;3.77;;
17570;SDS011;8903;52.220;20.978;2023-03-23T12:51:35;4.97;;;3.27;;
17570;SDS011;8903;52.220;20.978;2023-03-23T12:54:09;4.93;;;3.10;;
17570;SDS011;8903;52.220;20.978;2023-03-23T12:56:43;4.13;;;2.70;;
17570;SDS011;8903;52.220;20.978;2023-03-23T12:59:17;7.80;;;3.37;;
17570;SDS011;8903;52.220;20.978;2023-03-23T13:01:50;8.50;;;3.80;;
17570;SDS011;8903;52.220;20.978;2023-03-23T13:04:21;4.23;;;3.77;;
17570;SDS011;8903;52.220;20.978;2023-03-23T13:06:52;6.17;;;4.20;;
17570;SDS011;8903;52.220;20.978;2023-03-23T13:09:22;8.00;;;4.60;;
17570;SDS011;8903;52.220;20.978;2023-03-23T13:11:58;4.30;;;3.90;;
17570;SDS011;8903;52.220;20.978;2023-03-23T13:14:32;6.00;;;3.97;;
17570;SDS011;8903;52.220;20.978;2023-03-23T13:17:10;4.83;;;3.87;;
17570;SDS011;8903;52.220;20.978;2023-03-23T13:22:54;5.17;;;3.30;;
17570;SDS011;8903;52.220;20.978;2023-03-23T13:25:30;11.13;;;4.27;;
17570;SDS011;8903;52.220;20.978;2023-03-23T13:28:22;6.50;;;3.67;;
17570;SDS011;8903;52.220;20.978;2023-03-23T13:30:58;11.77;;;4.13;;
17570;SDS011;8903;52.220;20.978;2023-03-23T13:33:33;5.77;;;3.47;;
17570;SDS011;8903;52.220;20.978;2023-03-23T13:36:03;11.80;;;4.30;;
17570;SDS011;8903;52.220;20.978;2023-03-23T13:38:34;6.43;;;4.00;;
17570;SDS011;8903;52.220;20.978;2023-03-23T13:41:07;6.60;;;4.00;;
17570;SDS011;8903;52.220;20.978;2023-03-23T13:43:37;6.43;;;4.50;;
17570;SDS011;8903;52.220;20.978;2023-03-23T13:46:10;4.83;;;4.03;;
17570;SDS011;8903;52.220;20.978;2023-03-23T13:48:50;8.20;;;3.53;;
17570;SDS011;8903;52.220;20.978;2023-03-23T13:51:33;4.67;;;3.17;;
17570;SDS011;8903;52.220;20.978;2023-03-23T13:54:07;4.20;;;3.23;;
17570;SDS011;8903;52.220;20.978;2023-03-23T13:56:47;7.67;;;4.07;;
17570;SDS011;8903;52.220;20.978;2023-03-23T13:59:28;5.17;;;3.00;;
17570;SDS011;8903;52.220;20.978;2023-03-23T14:04:57;6.10;;;3.00;;
17570;SDS011;8903;52.220;20.978;2023-03-23T14:07:49;5.53;;;2.97;;
17570;SDS011;8903;52.220;20.978;2023-03-23T14:10:21;7.07;;;3.07;;
17570;SDS011;8903;52.220;20.978;2023-03-23T14:12:52;9.17;;;3.57;;
17570;SDS011;8903;52.220;20.978;2023-03-23T14:15:20;8.80;;;3.60;;
17570;SDS011;8903;52.220;20.978;2023-03-23T14:17:47;8.70;;;4.40;;
17570;SDS011;8903;52.220;20.978;2023-03-23T14:20:19;8.43;;;3.07;;
17570;SDS011;8903;52.220;20.978;2023-03-23T14:22:53;10.93;;;3.50;;
17570;SDS011;8903;52.220;20.978;2023-03-23T14:25:21;17.30;;;3.97;;
17570;SDS011;8903;52.220;20.978;2023-03-23T14:27:53;13.90;;;3.97;;
17570;SDS011;8903;52.220;20.978;2023-03-23T14:30:21;13.93;;;4.00;;
17570;SDS011;8903;52.220;20.978;2023-03-23T14:32:50;4.53;;;3.60;;
17570;SDS011;8903;52.220;20.978;2023-03-23T14:35:21;7.13;;;4.50;;
17570;SDS011;8903;52.220;20.978;2023-03-23T14:37:51;8.30;;;4.60;;
17570;SDS011;8903;52.220;20.978;2023-03-23T14:40:18;7.33;;;3.70;;
17570;SDS011;8903;52.220;20.978;2023-03-23T14:42:46;7.80;;;4.63;;
17570;SDS011;8903;52.220;20.978;2023-03-23T14:45:16;7.40;;;4.20;;
17570;SDS011;8903;52.220;20.978;2023-03-23T14:47:45;9.03;;;4.37;;
17570;SDS011;8903;52.220;20.978;2023-03-23T14:50:22;5.50;;;4.10;;
17570;SDS011;8903;52.220;20.978;2023-03-23T14:52:55;8.30;;;4.30;;
17570;SDS011;8903;52.220;20.978;2023-03-23T14:55:30;14.03;;;5.57;;
17570;SDS011;8903;52.220;20.978;2023-03-23T14:58:05;6.30;;;4.80;;
17570;SDS011;8903;52.220;20.978;2023-03-23T15:00:39;9.87;;;4.83;;
17570;SDS011;8903;52.220;20.978;2023-03-23T15:03:10;5.50;;;4.60;;
17570;SDS011;8903;52.220;20.978;2023-03-23T15:05:41;11.60;;;4.20;;
17570;SDS011;8903;52.220;20.978;2023-03-23T15:08:12;10.30;;;4.97;;
17570;SDS011;8903;52.220;20.978;2023-03-23T15:10:41;6.40;;;5.07;;
17570;SDS011;8903;52.220;20.978;2023-03-23T15:13:10;7.20;;;4.30;;
17570;SDS011;8903;52.220;20.978;2023-03-23T15:15:40;8.03;;;4.70;;
17570;SDS011;8903;52.220;20.978;2023-03-23T15:18:15;9.73;;;5.13;;
17570;SDS011;8903;52.220;20.978;2023-03-23T15:20:52;13.77;;;6.07;;
17570;SDS011;8903;52.220;20.978;2023-03-23T15:23:22;6.43;;;4.90;;
17570;SDS011;8903;52.220;20.978;2023-03-23T15:25:54;13.13;;;5.57;;
17570;SDS011;8903;52.220;20.978;2023-03-23T15:28:27;12.10;;;5.47;;
17570;SDS011;8903;52.220;20.978;2023-03-23T15:30:59;7.73;;;5.23;;
17570;SDS011;8903;52.220;20.978;2023-03-23T15:33:33;7.03;;;5.13;;
17570;SDS011;8903;52.220;20.978;2023-03-23T15:36:05;7.97;;;4.53;;
17570;SDS011;8903;52.220;20.978;2023-03-23T15:38:35;7.77;;;5.13;;
17570;SDS011;8903;52.220;20.978;2023-03-23T15:41:03;9.67;;;5.47;;
17570;SDS011;8903;52.220;20.978;2023-03-23T15:43:33;5.27;;;4.07;;
17570;SDS011;8903;52.220;20.978;2023-03-23T15:46:03;8.97;;;4.63;;
17570;SDS011;8903;52.220;20.978;2023-03-23T15:48:46;9.20;;;4.80;;
17570;SDS011;8903;52.220;20.978;2023-03-23T15:51:14;7.80;;;4.23;;
17570;SDS011;8903;52.220;20.978;2023-03-23T15:53:42;7.27;;;4.27;;
17570;SDS011;8903;52.220;20.978;2023-03-23T15:56:10;16.40;;;4.17;;
17570;SDS011;8903;52.220;20.978;2023-03-23T15:58:38;7.43;;;5.10;;
17570;SDS011;8903;52.220;20.978;2023-03-23T16:01:11;12.53;;;5.27;;
17570;SDS011;8903;52.220;20.978;2023-03-23T16:03:40;10.27;;;6.07;;
17570;SDS011;8903;52.220;20.978;2023-03-23T16:06:11;15.37;;;5.63;;
17570;SDS011;8903;52.220;20.978;2023-03-23T16:08:40;7.33;;;5.60;;
17570;SDS011;8903;52.220;20.978;2023-03-23T16:11:08;9.77;;;5.93;;
17570;SDS011;8903;52.220;20.978;2023-03-23T16:13:36;7.57;;;5.07;;
17570;SDS011;8903;52.220;20.978;2023-03-23T16:16:03;14.03;;;5.40;;
17570;SDS011;8903;52.220;20.978;2023-03-23T16:18:33;8.83;;;6.13;;
17570;SDS011;8903;52.220;20.978;2023-03-23T16:21:00;7.30;;;5.97;;
17570;SDS011;8903;52.220;20.978;2023-03-23T16:23:28;6.90;;;5.00;;
17570;SDS011;8903;52.220;20.978;2023-03-23T16:25:55;5.70;;;5.00;;
17570;SDS011;8903;52.220;20.978;2023-03-23T16:28:22;9.77;;;5.37;;
17570;SDS011;8903;52.220;20.978;2023-03-23T16:30:49;6.63;;;4.33;;
17570;SDS011;8903;52.220;20.978;2023-03-23T16:33:16;9.20;;;4.80;;
17570;SDS011;8903;52.220;20.978;2023-03-23T16:35:44;8.83;;;4.47;;
17570;SDS011;8903;52.220;20.978;2023-03-23T16:38:12;6.37;;;4.90;;
17570;SDS011;8903;52.220;20.978;2023-03-23T16:40:40;5.73;;;4.60;;
17570;SDS011;8903;52.220;20.978;2023-03-23T16:43:08;7.57;;;4.93;;
17570;SDS011;8903;52.220;20.978;2023-03-23T16:45:36;6.50;;;4.00;;
17570;SDS011;8903;52.220;20.978;2023-03-23T16:48:04;7.80;;;4.20;;
17570;SDS011;8903;52.220;20.978;2023-03-23T16:50:32;8.20;;;5.13;;
17570;SDS011;8903;52.220;20.978;2023-03-23T16:53:02;7.23;;;4.83;;
17570;SDS011;8903;52.220;20.978;2023-03-23T16:55:30;6.40;;;4.07;;
17570;SDS011;8903;52.220;20.978;2023-03-23T16:57:58;6.50;;;4.90;;
17570;SDS011;8903;52.220;20.978;2023-03-23T17:00:25;8.80;;;5.60;;
17570;SDS011;8903;52.220;20.978;2023-03-23T17:02:53;6.23;;;4.77;;
17570;SDS011;8903;52.220;20.978;2023-03-23T17:05:22;5.23;;;4.73;;
17570;SDS011;8903;52.220;20.978;2023-03-23T17:07:52;11.30;;;4.97;;
17570;SDS011;8903;52.220;20.978;2023-03-23T17:10:21;7.40;;;5.00;;
17570;SDS011;8903;52.220;20.978;2023-03-23T17:12:49;4.97;;;3.90;;
17570;SDS011;8903;52.220;20.978;2023-03-23T17:15:16;9.73;;;5.40;;
17570;SDS011;8903;52.220;20.978;2023-03-23T17:17:43;6.80;;;5.13;;
17570;SDS011;8903;52.220;20.978;2023-03-23T17:20:11;8.17;;;5.77;;
17570;SDS011;8903;52.220;20.978;2023-03-23T17:22:38;10.50;;;6.20;;
17570;SDS011;8903;52.220;20.978;2023-03-23T17:25:06;15.13;;;6.53;;
17570;SDS011;8903;52.220;20.978;2023-03-23T17:27:35;9.23;;;6.10;;
17570;SDS011;8903;52.220;20.978;2023-03-23T17:30:03;7.37;;;5.63;;
17570;SDS011;8903;52.220;20.978;2023-03-23T17:32:31;6.67;;;5.50;;
17570;SDS011;8903;52.220;20.978;2023-03-23T17:34:59;10.73;;;5.63;;
17570;SDS011;8903;52.220;20.978;2023-03-23T17:37:26;8.83;;;5.57;;
17570;SDS011;8903;52.220;20.978;2023-03-23T17:40:18;9.53;;;6.57;;
17570;SDS011;8903;52.220;20.978;2023-03-23T17:42:47;10.80;;;6.43;;
17570;SDS011;8903;52.220;20.978;2023-03-23T17:45:14;7.20;;;5.63;;
17570;SDS011;8903;52.220;20.978;2023-03-23T17:47:41;11.23;;;6.50;;
17570;SDS011;8903;52.220;20.978;2023-03-23T17:50:08;7.40;;;5.60;;
17570;SDS011;8903;52.220;20.978;2023-03-23T17:52:35;8.20;;;6.10;;
17570;SDS011;8903;52.220;20.978;2023-03-23T17:55:02;7.60;;;6.13;;
17570;SDS011;8903;52.220;20.978;2023-03-23T17:57:30;10.00;;;6.70;;
17570;SDS011;8903;52.220;20.978;2023-03-23T17:59:59;7.90;;;6.10;;
17570;SDS011;8903;52.220;20.978;2023-03-23T18:02:26;10.60;;;6.23;;
17570;SDS011;8903;52.220;20.978;2023-03-23T18:04:55;6.83;;;5.47;;
17570;SDS011;8903;52.220;20.978;2023-03-23T18:07:23;8.00;;;6.70;;
17570;SDS011;8903;52.220;20.978;2023-03-23T18:09:51;11.73;;;5.57;;
17570;SDS011;8903;52.220;20.978;2023-03-23T18:12:18;13.43;;;6.70;;
17570;SDS011;8903;52.220;20.978;2023-03-23T18:14:47;6.60;;;5.83;;
17570;SDS011;8903;52.220;20.978;2023-03-23T18:17:15;8.37;;;6.40;;
17570;SDS011;8903;52.220;20.978;2023-03-23T18:19:42;8.00;;;6.17;;
17570;SDS011;8903;52.220;20.978;2023-03-23T18:22:10;10.00;;;6.43;;
17570;SDS011;8903;52.220;20.978;2023-03-23T18:24:37;10.37;;;7.60;;
17570;SDS011;8903;52.220;20.978;2023-03-23T18:27:05;15.03;;;6.63;;
17570;SDS011;8903;52.220;20.978;2023-03-23T18:29:35;11.20;;;8.67;;
17570;SDS011;8903;52.220;20.978;2023-03-23T18:32:02;9.47;;;7.27;;
17570;SDS011;8903;52.220;20.978;2023-03-23T18:34:32;9.90;;;6.77;;
17570;SDS011;8903;52.220;20.978;2023-03-23T18:37:00;15.83;;;8.60;;
17570;SDS011;8903;52.220;20.978;2023-03-23T18:39:28;7.50;;;6.60;;
17570;SDS011;8903;52.220;20.978;2023-03-23T18:41:58;10.93;;;7.70;;
17570;SDS011;8903;52.220;20.978;2023-03-23T18:44:25;8.43;;;6.93;;
17570;SDS011;8903;52.220;20.978;2023-03-23T18:46:52;11.20;;;8.47;;
17570;SDS011;8903;52.220;20.978;2023-03-23T18:49:19;13.50;;;8.73;;
17570;SDS011;8903;52.220;20.978;2023-03-23T18:51:47;12.43;;;7.97;;
17570;SDS011;8903;52.220;20.978;2023-03-23T18:54:14;18.23;;;8.87;;
17570;SDS011;8903;52.220;20.978;2023-03-23T18:56:42;10.40;;;8.77;;
17570;SDS011;8903;52.220;20.978;2023-03-23T18:59:09;13.73;;;9.20;;
17570;SDS011;8903;52.220;20.978;2023-03-23T19:01:36;11.53;;;8.00;;
17570;SDS011;8903;52.220;20.978;2023-03-23T19:04:04;10.07;;;7.90;;
17570;SDS011;8903;52.220;20.978;2023-03-23T19:06:31;13.23;;;7.30;;
17570;SDS011;8903;52.220;20.978;2023-03-23T19:09:00;8.67;;;6.83;;
17570;SDS011;8903;52.220;20.978;2023-03-23T19:11:28;9.70;;;6.77;;
17570;SDS011;8903;52.220;20.978;2023-03-23T19:13:55;8.20;;;7.00;;
17570;SDS011;8903;52.220;20.978;2023-03-23T19:16:23;8.53;;;5.77;;
17570;SDS011;8903;52.220;20.978;2023-03-23T19:18:50;10.47;;;6.47;;
17570;SDS011;8903;52.220;20.978;2023-03-23T19:21:17;10.67;;;6.87;;
17570;SDS011;8903;52.220;20.978;2023-03-23T19:23:44;10.10;;;6.00;;
17570;SDS011;8903;52.220;20.978;2023-03-23T19:26:17;7.83;;;6.50;;
17570;SDS011;8903;52.220;20.978;2023-03-23T19:28:47;10.23;;;6.57;;
17570;SDS011;8903;52.220;20.978;2023-03-23T19:31:14;7.23;;;5.80;;
17570;SDS011;8903;52.220;20.978;2023-03-23T19:33:44;10.53;;;6.40;;
17570;SDS011;8903;52.220;20.978;2023-03-23T19:36:11;7.93;;;5.37;;
17570;SDS011;8903;52.220;20.978;2023-03-23T19:38:38;7.33;;;5.57;;
17570;SDS011;8903;52.220;20.978;2023-03-23T19:41:05;8.70;;;6.03;;
17570;SDS011;8903;52.220;20.978;2023-03-23T19:43:33;5.47;;;4.17;;
17570;SDS011;8903;52.220;20.978;2023-03-23T19:46:02;11.30;;;7.17;;
17570;SDS011;8903;52.220;20.978;2023-03-23T19:48:30;6.70;;;5.73;;
17570;SDS011;8903;52.220;20.978;2023-03-23T19:50:57;11.57;;;5.53;;
17570;SDS011;8903;52.220;20.978;2023-03-23T19:53:24;5.90;;;4.50;;
17570;SDS011;8903;52.220;20.978;2023-03-23T19:55:51;6.57;;;4.20;;
17570;SDS011;8903;52.220;20.978;2023-03-23T19:58:20;5.53;;;3.90;;
17570;SDS011;8903;52.220;20.978;2023-03-23T20:00:49;7.73;;;4.37;;
17570;SDS011;8903;52.220;20.978;2023-03-23T20:03:16;6.43;;;3.50;;
17570;SDS011;8903;52.220;20.978;2023-03-23T20:05:43;5.50;;;3.77;;
17570;SDS011;8903;52.220;20.978;2023-03-23T20:08:10;3.60;;;3.00;;
17570;SDS011;8903;52.220;20.978;2023-03-23T20:10:38;3.80;;;3.40;;
17570;SDS011;8903;52.220;20.978;2023-03-23T20:13:06;3.50;;;2.63;;
17570;SDS011;8903;52.220;20.978;2023-03-23T20:15:34;5.13;;;3.30;;
17570;SDS011;8903;52.220;20.978;2023-03-23T20:18:02;5.03;;;3.17;;
17570;SDS011;8903;52.220;20.978;2023-03-23T20:20:31;3.57;;;2.67;;